createdAt,value
2018-10-04T00:01:51.956Z,4.53
2018-10-04T00:04:20.817Z,3.83
2018-10-04T00:06:49.137Z,3.30
2018-10-04T00:09:18.813Z,3.53
2018-10-04T00:11:47.686Z,3.93
2018-10-04T00:14:17.052Z,5.20
2018-10-04T00:16:46.448Z,4.20
2018-10-04T00:19:15.845Z,7.97
2018-10-04T00:21:44.802Z,1.30
2018-10-04T00:24:13.719Z,2.73
2018-10-04T00:26:43.331Z,2.67
2018-10-04T00:29:12.525Z,2.03
2018-10-04T00:31:42.086Z,3.27
2018-10-04T00:34:11.135Z,4.47
2018-10-04T00:36:40.448Z,7.17
2018-10-04T00:39:10.177Z,11.60
2018-10-04T00:41:39.789Z,12.30
2018-10-04T00:44:09.661Z,6.03
2018-10-04T00:46:38.453Z,4.97
2018-10-04T00:49:07.593Z,6.30
2018-10-04T00:51:36.822Z,8.63
2018-10-04T00:54:06.136Z,7.43
2018-10-04T00:56:35.767Z,10.00
2018-10-04T00:59:05.113Z,8.87
2018-10-04T01:01:34.078Z,9.30
2018-10-04T01:04:03.623Z,4.77
2018-10-04T01:06:32.460Z,8.57
2018-10-04T01:09:01.674Z,1.33
2018-10-04T01:11:30.974Z,2.67
2018-10-04T01:13:59.843Z,3.57
2018-10-04T01:16:29.217Z,4.97
2018-10-04T01:18:59.979Z,1.90
2018-10-04T01:21:29.218Z,2.50
2018-10-04T01:23:58.053Z,2.43
2018-10-04T01:26:26.791Z,1.50
2018-10-04T01:28:55.627Z,3.33
2018-10-04T01:31:24.718Z,1.47
2018-10-04T01:33:53.629Z,1.33
2018-10-04T01:36:23.352Z,2.37
2018-10-04T01:38:52.061Z,5.77
2018-10-04T01:41:21.287Z,4.20
2018-10-04T01:43:49.872Z,1.63
2018-10-04T01:46:19.120Z,2.20
2018-10-04T01:48:48.841Z,2.40
2018-10-04T01:51:17.657Z,1.97
2018-10-04T01:53:46.834Z,2.47
2018-10-04T01:56:16.046Z,2.83
2018-10-04T01:58:45.176Z,2.57
2018-10-04T02:01:14.071Z,3.97
2018-10-04T02:03:43.121Z,3.13
2018-10-04T02:06:12.029Z,1.83
2018-10-04T02:08:41.233Z,2.87
2018-10-04T02:11:11.203Z,2.13
2018-10-04T02:13:40.296Z,1.17
2018-10-04T02:16:09.287Z,1.53
2018-10-04T02:18:39.760Z,1.43
2018-10-04T02:21:08.785Z,1.37
2018-10-04T02:23:38.138Z,3.70
2018-10-04T02:26:07.280Z,1.77
2018-10-04T02:28:36.533Z,3.37
2018-10-04T02:31:05.872Z,1.33
2018-10-04T02:33:34.927Z,4.47
2018-10-04T02:36:03.915Z,1.03
2018-10-04T02:38:32.797Z,2.33
2018-10-04T02:41:01.715Z,1.10
2018-10-04T02:43:30.873Z,1.10
2018-10-04T02:45:59.789Z,2.70
2018-10-04T02:48:28.284Z,1.40
2018-10-04T02:50:57.241Z,2.23
2018-10-04T02:53:26.295Z,2.93
2018-10-04T02:56:01.121Z,1.90
2018-10-04T02:58:30.011Z,2.70
2018-10-04T03:00:59.045Z,2.30
2018-10-04T03:03:28.385Z,2.13
2018-10-04T03:05:57.625Z,3.97
2018-10-04T03:08:26.797Z,3.23
2018-10-04T03:10:55.428Z,2.60
2018-10-04T03:13:24.829Z,1.47
2018-10-04T03:15:54.051Z,1.90
2018-10-04T03:18:23.295Z,2.13
2018-10-04T03:20:52.281Z,3.00
2018-10-04T03:23:20.874Z,3.20
2018-10-04T03:25:49.773Z,2.37
2018-10-04T03:28:18.699Z,1.80
2018-10-04T03:30:47.874Z,2.00
2018-10-04T03:33:16.693Z,2.83
2018-10-04T03:35:45.865Z,2.80
2018-10-04T03:38:14.837Z,2.00
2018-10-04T03:40:43.464Z,2.67
2018-10-04T03:43:12.378Z,1.30
2018-10-04T03:45:41.790Z,2.73
2018-10-04T03:48:10.996Z,2.83
2018-10-04T03:50:39.907Z,4.57
2018-10-04T03:53:08.837Z,1.77
2018-10-04T03:55:38.311Z,2.40
2018-10-04T03:58:07.821Z,2.33
2018-10-04T04:00:36.798Z,1.43
2018-10-04T04:03:05.653Z,1.83
2018-10-04T04:05:34.860Z,1.97
2018-10-04T04:08:04.403Z,2.83
2018-10-04T04:10:33.102Z,1.97
2018-10-04T04:13:02.169Z,2.80
2018-10-04T04:15:31.357Z,4.80
2018-10-04T04:18:00.661Z,6.77
2018-10-04T04:20:29.560Z,1.03
2018-10-04T04:22:58.794Z,1.40
2018-10-04T04:25:27.767Z,1.57
2018-10-04T04:27:56.657Z,2.77
2018-10-04T04:30:26.138Z,3.93
2018-10-04T04:32:55.309Z,2.93
2018-10-04T04:35:24.846Z,1.73
2018-10-04T04:37:53.807Z,1.57
2018-10-04T04:40:22.698Z,3.40
2018-10-04T04:42:51.902Z,2.30
2018-10-04T04:45:21.703Z,1.30
2018-10-04T04:47:50.881Z,3.30
2018-10-04T04:50:19.761Z,1.00
2018-10-04T04:52:48.487Z,2.30
2018-10-04T04:55:29.719Z,1.07
2018-10-04T04:57:59.805Z,3.67
2018-10-04T05:00:29.953Z,3.10
2018-10-04T05:02:59.661Z,1.43
2018-10-04T05:05:29.254Z,1.37
2018-10-04T05:07:59.363Z,4.03
2018-10-04T05:10:29.060Z,1.77
2018-10-04T05:12:59.396Z,3.30
2018-10-04T05:15:28.331Z,1.67
2018-10-04T05:17:57.208Z,2.53
2018-10-04T05:20:26.025Z,1.40
2018-10-04T05:22:55.745Z,1.83
2018-10-04T05:25:24.613Z,5.10
2018-10-04T05:27:53.387Z,6.67
2018-10-04T05:30:22.298Z,2.87
2018-10-04T05:32:51.501Z,2.60
2018-10-04T05:35:20.606Z,1.70
2018-10-04T05:37:49.439Z,2.40
2018-10-04T05:40:18.037Z,2.07
2018-10-04T05:42:47.371Z,3.50
2018-10-04T05:45:16.287Z,1.97
2018-10-04T05:47:45.178Z,3.63
2018-10-04T05:50:14.037Z,1.40
2018-10-04T05:52:43.031Z,1.47
2018-10-04T05:55:11.923Z,3.43
2018-10-04T05:57:41.357Z,3.20
2018-10-04T06:00:15.761Z,1.83
2018-10-04T06:02:44.792Z,5.73
2018-10-04T06:05:14.165Z,3.07
2018-10-04T06:07:43.366Z,2.03
2018-10-04T06:10:12.209Z,4.40
2018-10-04T06:12:42.081Z,5.67
2018-10-04T06:15:10.828Z,4.73
2018-10-04T06:17:40.113Z,2.17
2018-10-04T06:20:09.947Z,4.53
2018-10-04T06:22:39.124Z,3.67
2018-10-04T06:25:08.499Z,1.73
2018-10-04T06:27:37.764Z,3.50
2018-10-04T06:30:06.798Z,1.77
2018-10-04T06:32:35.637Z,4.13
2018-10-04T06:35:04.681Z,2.97
2018-10-04T06:37:33.584Z,3.83
2018-10-04T06:40:02.283Z,1.83
2018-10-04T06:42:30.717Z,2.23
2018-10-04T06:44:59.602Z,2.53
2018-10-04T06:47:28.775Z,2.07
2018-10-04T06:49:57.753Z,1.50
2018-10-04T06:52:27.077Z,3.27
2018-10-04T06:54:56.061Z,1.37
2018-10-04T06:57:25.097Z,5.73
2018-10-04T06:59:53.986Z,2.40
2018-10-04T07:02:22.603Z,1.43
2018-10-04T07:04:51.549Z,2.87
2018-10-04T07:07:20.185Z,3.93
2018-10-04T07:09:49.961Z,1.60
2018-10-04T07:12:18.841Z,1.17
2018-10-04T07:14:47.765Z,2.17
2018-10-04T07:17:16.321Z,4.13
2018-10-04T07:19:46.245Z,2.03
2018-10-04T07:22:15.041Z,2.33
2018-10-04T07:24:44.252Z,2.53
2018-10-04T07:27:13.445Z,1.37
2018-10-04T07:29:42.428Z,2.93
2018-10-04T07:32:11.920Z,2.97
2018-10-04T07:34:40.718Z,1.13
2018-10-04T07:37:09.569Z,0.80
2018-10-04T07:39:39.072Z,2.20
2018-10-04T07:42:08.364Z,1.90
2018-10-04T07:44:36.918Z,2.90
2018-10-04T07:47:06.036Z,1.97
2018-10-04T07:49:34.605Z,2.00
2018-10-04T07:52:03.812Z,3.10
2018-10-04T07:54:32.751Z,1.23
2018-10-04T07:57:01.405Z,1.73
2018-10-04T07:59:30.809Z,1.47
2018-10-04T08:01:59.661Z,1.00
2018-10-04T08:04:28.924Z,1.40
2018-10-04T08:06:57.821Z,4.17
2018-10-04T08:09:26.477Z,0.93
2018-10-04T08:11:55.653Z,1.73
2018-10-04T08:14:24.997Z,0.87
2018-10-04T08:16:54.414Z,1.00
2018-10-04T08:19:23.518Z,1.13
2018-10-04T08:21:52.410Z,0.60
2018-10-04T08:24:21.332Z,2.00
2018-10-04T08:26:50.173Z,1.60
2018-10-04T08:29:19.122Z,2.13
2018-10-04T08:31:48.289Z,3.10
2018-10-04T08:34:16.973Z,0.87
2018-10-04T08:36:46.007Z,0.83
2018-10-04T08:39:14.869Z,0.90
2018-10-04T08:41:43.783Z,0.80
2018-10-04T08:44:12.804Z,1.17
2018-10-04T08:46:42.143Z,1.03
2018-10-04T08:49:11.615Z,1.30
2018-10-04T08:51:45.935Z,0.50
2018-10-04T08:54:15.350Z,0.57
2018-10-04T08:56:44.340Z,1.43
2018-10-04T08:59:13.028Z,1.00
2018-10-04T09:01:41.889Z,1.43
2018-10-04T09:04:11.128Z,2.97
2018-10-04T09:06:40.117Z,1.20
2018-10-04T09:09:08.724Z,1.03
2018-10-04T09:11:37.729Z,1.67
2018-10-04T09:14:08.089Z,1.27
2018-10-04T09:16:36.905Z,0.60
2018-10-04T09:19:05.773Z,0.87
2018-10-04T09:21:35.445Z,1.23
2018-10-04T09:24:05.209Z,1.20
2018-10-04T09:26:34.352Z,0.80
2018-10-04T09:29:08.235Z,0.53
2018-10-04T09:31:39.228Z,0.90
2018-10-04T09:34:09.230Z,1.83
2018-10-04T09:36:38.447Z,0.97
2018-10-04T09:39:08.009Z,1.90
2018-10-04T09:41:36.641Z,0.50
2018-10-04T09:44:05.926Z,0.93
2018-10-04T09:46:35.032Z,1.03
2018-10-04T09:49:03.714Z,1.53
2018-10-04T09:52:06.865Z,2.70
2018-10-04T09:54:41.307Z,2.10
2018-10-04T09:57:15.638Z,0.90
2018-10-04T09:59:44.901Z,2.40
2018-10-04T10:02:23.559Z,0.90
2018-10-04T10:04:52.359Z,0.87
2018-10-04T10:07:21.261Z,3.60
2018-10-04T10:09:50.117Z,2.10
2018-10-04T10:12:19.017Z,1.23
2018-10-04T10:14:48.051Z,0.57
2018-10-04T10:17:17.145Z,1.07
2018-10-04T10:19:46.249Z,1.00
2018-10-04T10:22:14.977Z,0.80
2018-10-04T10:24:43.989Z,0.43
2018-10-04T10:27:12.751Z,0.83
2018-10-04T10:29:41.767Z,1.83
2018-10-04T10:32:10.683Z,0.60
2018-10-04T10:34:39.723Z,0.57
2018-10-04T10:37:08.829Z,0.70
2018-10-04T10:39:38.083Z,1.50
2018-10-04T10:42:07.263Z,3.10
2018-10-04T10:44:36.103Z,1.60
2018-10-04T10:47:05.145Z,3.17
2018-10-04T10:49:34.374Z,2.10
2018-10-04T10:52:03.193Z,2.43
2018-10-04T10:54:32.488Z,1.80
2018-10-04T10:57:01.575Z,0.57
2018-10-04T10:59:30.389Z,0.67
2018-10-04T11:01:59.569Z,1.00
2018-10-04T11:04:28.415Z,1.20
2018-10-04T11:06:57.497Z,1.60
2018-10-04T11:09:25.754Z,3.30
2018-10-04T11:11:54.842Z,1.07
2018-10-04T11:14:24.080Z,0.43
2018-10-04T11:16:52.637Z,2.20
2018-10-04T11:19:21.932Z,1.47
2018-10-04T11:21:51.304Z,2.17
2018-10-04T11:24:21.873Z,0.57
2018-10-04T11:26:50.362Z,1.67
2018-10-04T11:29:19.363Z,1.37
2018-10-04T11:31:48.282Z,3.33
2018-10-04T11:34:17.469Z,1.97
2018-10-04T11:36:47.236Z,1.63
2018-10-04T11:39:16.546Z,2.07
2018-10-04T11:41:45.773Z,1.27
2018-10-04T11:44:23.201Z,1.50
2018-10-04T11:46:57.137Z,1.60
2018-10-04T11:49:25.777Z,0.97
2018-10-04T11:51:54.648Z,2.23
2018-10-04T11:54:23.938Z,1.53
2018-10-04T11:56:52.944Z,0.87
2018-10-04T11:59:22.117Z,0.97
2018-10-04T12:01:51.475Z,3.30
2018-10-04T12:04:20.590Z,1.93
2018-10-04T12:06:49.542Z,1.80
2018-10-04T12:09:18.445Z,0.90
2018-10-04T12:11:47.645Z,1.50
2018-10-04T12:14:16.269Z,0.83
2018-10-04T12:16:46.907Z,1.40
2018-10-04T12:19:15.189Z,0.60
2018-10-04T12:21:43.777Z,1.70
2018-10-04T12:24:12.806Z,31.13
2018-10-04T12:26:41.913Z,5.43
2018-10-04T12:29:11.357Z,0.97
2018-10-04T12:31:40.673Z,0.73
2018-10-04T12:34:09.491Z,3.57
2018-10-04T12:36:38.564Z,2.20
2018-10-04T12:39:09.117Z,2.47
2018-10-04T12:41:37.885Z,3.23
2018-10-04T12:44:06.824Z,1.93
2018-10-04T12:46:36.123Z,1.00
2018-10-04T12:49:05.326Z,3.03
2018-10-04T12:51:34.341Z,2.87
2018-10-04T12:54:03.740Z,2.80
2018-10-04T12:56:32.941Z,1.03
2018-10-04T12:59:01.609Z,2.27
2018-10-04T13:01:30.721Z,0.97
2018-10-04T13:03:59.649Z,1.23
2018-10-04T13:06:28.842Z,3.37
2018-10-04T13:08:58.223Z,1.70
2018-10-04T13:11:27.081Z,2.17
2018-10-04T13:13:56.390Z,1.90
2018-10-04T13:16:25.713Z,2.63
2018-10-04T13:18:53.965Z,2.63
2018-10-04T13:21:22.960Z,1.77
2018-10-04T13:23:52.514Z,1.57
2018-10-04T13:26:21.637Z,2.23
2018-10-04T13:28:50.202Z,1.50
2018-10-04T13:31:19.123Z,1.27
2018-10-04T13:33:48.306Z,6.60
2018-10-04T13:36:16.840Z,4.30
2018-10-04T13:38:45.789Z,8.53
2018-10-04T13:41:17.977Z,1.47
2018-10-04T13:43:47.171Z,2.60
2018-10-04T13:46:16.659Z,1.47
2018-10-04T13:48:46.271Z,4.17
2018-10-04T13:51:15.407Z,2.93
2018-10-04T13:53:44.685Z,0.60
2018-10-04T13:56:13.534Z,2.77
2018-10-04T13:58:42.750Z,1.53
2018-10-04T14:01:11.263Z,2.43
2018-10-04T14:03:40.261Z,0.93
2018-10-04T14:06:09.119Z,1.53
2018-10-04T14:08:37.818Z,1.00
2018-10-04T14:11:07.009Z,1.93
2018-10-04T14:13:35.810Z,34.97
2018-10-04T14:16:04.957Z,11.20
2018-10-04T14:18:34.077Z,28.53
2018-10-04T14:21:03.926Z,26.17
2018-10-04T14:23:33.234Z,15.70
2018-10-04T14:26:02.593Z,10.23
2018-10-04T14:28:31.430Z,8.77
2018-10-04T14:31:00.872Z,5.30
2018-10-04T14:33:30.061Z,5.73
2018-10-04T14:35:59.377Z,7.13
2018-10-04T14:38:28.287Z,2.27
2018-10-04T14:40:57.196Z,4.33
2018-10-04T14:43:26.261Z,1.73
2018-10-04T14:45:55.451Z,4.73
2018-10-04T14:48:24.705Z,9.03
2018-10-04T14:50:53.941Z,14.73
2018-10-04T14:53:22.767Z,13.20
2018-10-04T14:55:51.627Z,28.63
2018-10-04T14:58:20.366Z,14.43
2018-10-04T15:00:50.041Z,3.60
2018-10-04T15:03:19.337Z,4.33
2018-10-04T15:05:48.645Z,4.23
2018-10-04T15:08:18.046Z,1.70
2018-10-04T15:10:46.633Z,20.10
2018-10-04T15:13:15.567Z,15.03
2018-10-04T15:15:44.669Z,28.57
2018-10-04T15:18:13.621Z,73.77
2018-10-04T15:20:42.857Z,97.67
2018-10-04T15:23:12.265Z,36.90
2018-10-04T15:25:40.992Z,66.13
2018-10-04T15:28:10.063Z,73.43
2018-10-04T15:30:38.761Z,88.43
2018-10-04T15:33:07.390Z,109.33
2018-10-04T15:35:36.533Z,42.97
2018-10-04T15:38:05.755Z,122.30
2018-10-04T15:40:34.834Z,49.90
2018-10-04T15:43:03.804Z,60.77
2018-10-04T15:45:33.057Z,22.53
2018-10-04T15:48:02.147Z,77.27
2018-10-04T15:50:31.333Z,119.50
2018-10-04T15:53:00.580Z,64.57
2018-10-04T15:55:29.790Z,36.07
2018-10-04T15:57:58.884Z,48.37
2018-10-04T16:00:28.137Z,76.73
2018-10-04T16:02:56.704Z,78.37
2018-10-04T16:05:26.217Z,54.93
2018-10-04T16:07:55.377Z,16.10
2018-10-04T16:10:24.773Z,60.73
2018-10-04T16:12:53.641Z,41.90
2018-10-04T16:15:26.733Z,77.00
2018-10-04T16:17:56.257Z,23.83
2018-10-04T16:20:25.233Z,22.90
2018-10-04T16:22:53.549Z,7.70
2018-10-04T16:25:22.539Z,32.10
2018-10-04T16:27:51.806Z,35.43
2018-10-04T16:30:21.142Z,21.93
2018-10-04T16:32:49.904Z,21.63
2018-10-04T16:35:19.238Z,23.70
2018-10-04T16:37:48.361Z,8.73
2018-10-04T16:40:17.573Z,17.97
2018-10-04T16:42:46.691Z,11.50
2018-10-04T16:45:15.641Z,7.63
2018-10-04T16:47:44.557Z,13.13
2018-10-04T16:50:13.914Z,29.07
2018-10-04T16:52:43.332Z,4.63
2018-10-04T16:55:12.573Z,9.90
2018-10-04T16:57:41.135Z,7.53
2018-10-04T17:00:11.576Z,4.03
2018-10-04T17:02:42.123Z,9.47
2018-10-04T17:05:11.308Z,6.97
2018-10-04T17:07:40.553Z,13.60
2018-10-04T17:10:10.348Z,13.20
2018-10-04T17:12:39.516Z,9.17
2018-10-04T17:15:08.720Z,5.87
2018-10-04T17:17:38.251Z,3.90
2018-10-04T17:20:07.540Z,5.67
2018-10-04T17:22:38.007Z,7.00
2018-10-04T17:25:07.962Z,4.03
2018-10-04T17:27:37.936Z,9.80
2018-10-04T17:30:07.726Z,21.63
2018-10-04T17:32:37.906Z,5.23
2018-10-04T17:35:07.810Z,5.53
2018-10-04T17:37:37.461Z,17.40
2018-10-04T17:40:07.830Z,12.80
2018-10-04T17:42:37.680Z,3.47
2018-10-04T17:45:07.893Z,3.63
2018-10-04T17:47:38.380Z,1.10
2018-10-04T17:50:08.740Z,4.00
2018-10-04T17:52:38.668Z,5.63
2018-10-04T17:55:08.150Z,7.83
2018-10-04T17:57:40.616Z,5.30
2018-10-04T18:00:12.151Z,8.13
2018-10-04T18:02:41.255Z,3.63
2018-10-04T18:05:11.450Z,5.30
2018-10-04T18:07:42.438Z,3.10
2018-10-04T18:10:11.954Z,2.70
2018-10-04T18:12:43.278Z,2.73
2018-10-04T18:15:13.668Z,2.10
2018-10-04T18:17:44.780Z,4.57
2018-10-04T18:20:14.965Z,1.93
2018-10-04T18:22:44.885Z,2.60
2018-10-04T18:25:15.699Z,4.40
2018-10-04T18:27:45.000Z,2.93
2018-10-04T18:30:13.897Z,3.50
2018-10-04T18:32:43.869Z,1.77
2018-10-04T18:35:13.630Z,1.23
2018-10-04T18:37:43.708Z,3.50
2018-10-04T18:40:13.937Z,6.50
2018-10-04T18:42:44.348Z,3.93
2018-10-04T18:45:14.747Z,2.90
2018-10-04T18:47:44.559Z,4.07
2018-10-04T18:50:13.858Z,10.43
2018-10-04T18:52:43.074Z,8.87
2018-10-04T18:55:12.794Z,4.27
2018-10-04T18:57:42.555Z,1.00
2018-10-04T19:00:14.020Z,2.13
2018-10-04T19:02:43.947Z,2.80
2018-10-04T19:05:13.575Z,2.57
2018-10-04T19:07:44.050Z,1.10
2018-10-04T19:10:13.758Z,2.50
2018-10-04T19:12:44.453Z,1.23
2018-10-04T19:15:14.022Z,2.20
2018-10-04T19:17:43.615Z,1.83
2018-10-04T19:20:13.842Z,1.53
2018-10-04T19:22:43.967Z,2.60
2018-10-04T19:25:14.035Z,2.40
2018-10-04T19:27:44.100Z,2.73
2018-10-04T19:30:14.842Z,2.30
2018-10-04T19:32:44.520Z,1.77
2018-10-04T19:35:15.869Z,6.47
2018-10-04T19:37:45.291Z,1.80
2018-10-04T19:40:15.083Z,1.80
2018-10-04T19:42:46.961Z,1.30
2018-10-04T19:45:17.032Z,2.57
2018-10-04T19:47:47.478Z,4.50
2018-10-04T19:50:18.146Z,2.13
2018-10-04T19:52:48.206Z,4.70
2018-10-04T19:55:17.574Z,1.83
2018-10-04T19:57:47.211Z,1.90
2018-10-04T20:00:18.597Z,2.00
2018-10-04T20:02:48.153Z,2.23
2018-10-04T20:05:17.981Z,3.00
2018-10-04T20:07:48.183Z,2.30
2018-10-04T20:10:17.498Z,1.67
2018-10-04T20:12:47.159Z,2.37
2018-10-04T20:15:17.464Z,3.20
2018-10-04T20:17:46.917Z,1.23
2018-10-04T20:20:16.701Z,6.37
2018-10-04T20:22:45.607Z,4.50
2018-10-04T20:25:15.462Z,4.07
2018-10-04T20:27:45.042Z,2.20
2018-10-04T20:30:14.186Z,7.23
2018-10-04T20:32:43.548Z,2.47
2018-10-04T20:35:12.966Z,4.30
2018-10-04T20:37:42.725Z,2.43
2018-10-04T20:40:12.577Z,2.93
2018-10-04T20:42:41.906Z,1.30
2018-10-04T20:45:12.190Z,3.70
2018-10-04T20:47:40.928Z,3.27
2018-10-04T20:50:10.949Z,3.20
2018-10-04T20:52:39.321Z,3.57
2018-10-04T20:55:08.452Z,3.83
2018-10-04T20:57:37.593Z,2.67
2018-10-04T21:00:06.918Z,1.70
2018-10-04T21:02:36.128Z,3.00
2018-10-04T21:05:06.117Z,6.07
2018-10-04T21:07:35.010Z,5.37
2018-10-04T21:10:03.799Z,1.73
2018-10-04T21:12:32.514Z,2.77
2018-10-04T21:15:01.409Z,5.77
2018-10-04T21:17:29.928Z,8.43
2018-10-04T21:19:59.199Z,3.50
2018-10-04T21:22:28.190Z,4.63
2018-10-04T21:24:57.263Z,5.20
2018-10-04T21:27:26.429Z,3.13
2018-10-04T21:29:55.201Z,3.93
2018-10-04T21:32:24.063Z,4.07
2018-10-04T21:34:53.677Z,1.87
2018-10-04T21:37:22.964Z,6.13
2018-10-04T21:39:51.961Z,4.20
2018-10-04T21:42:20.893Z,3.13
2018-10-04T21:44:49.788Z,4.83
2018-10-04T21:47:18.765Z,3.30
2018-10-04T21:49:47.897Z,6.23
2018-10-04T21:52:16.820Z,4.37
2018-10-04T21:54:45.677Z,2.10
2018-10-04T21:57:14.981Z,2.37
2018-10-04T21:59:43.954Z,1.17
2018-10-04T22:02:12.965Z,5.10
2018-10-04T22:04:41.836Z,3.43
2018-10-04T22:07:11.448Z,3.33
2018-10-04T22:09:40.397Z,2.57
2018-10-04T22:12:09.649Z,5.47
2018-10-04T22:14:38.564Z,4.53
2018-10-04T22:17:08.537Z,4.60
2018-10-04T22:19:37.292Z,2.17
2018-10-04T22:22:06.390Z,2.93
2018-10-04T22:24:35.258Z,4.83
2018-10-04T22:27:04.513Z,3.90
2018-10-04T22:29:33.765Z,3.97
2018-10-04T22:32:02.689Z,1.37
2018-10-04T22:34:31.664Z,2.77
2018-10-04T22:37:00.953Z,2.80
2018-10-04T22:39:30.248Z,1.80
2018-10-04T22:41:59.399Z,5.77
2018-10-04T22:44:28.387Z,2.93
2018-10-04T22:46:57.797Z,2.33
2018-10-04T22:49:27.637Z,5.37
2018-10-04T22:51:57.043Z,3.50
2018-10-04T22:54:26.832Z,4.60
2018-10-04T22:56:55.437Z,5.10
2018-10-04T22:59:24.133Z,3.23
2018-10-04T23:01:53.389Z,4.87
2018-10-04T23:04:22.405Z,2.97
2018-10-04T23:06:51.374Z,4.07
2018-10-04T23:09:20.274Z,3.83
2018-10-04T23:11:49.525Z,5.40
2018-10-04T23:14:18.753Z,3.93
2018-10-04T23:16:47.403Z,3.20
2018-10-04T23:19:16.118Z,3.13
2018-10-04T23:21:44.940Z,4.33
2018-10-04T23:24:13.986Z,3.60
2018-10-04T23:26:42.675Z,4.67
2018-10-04T23:29:11.673Z,4.50
2018-10-04T23:31:40.209Z,5.67
2018-10-04T23:34:09.360Z,3.17
2018-10-04T23:36:38.485Z,4.27
2018-10-04T23:39:08.145Z,5.87
2018-10-04T23:41:36.837Z,5.83
2018-10-04T23:44:05.968Z,15.37
2018-10-04T23:46:35.233Z,7.77
2018-10-04T23:49:03.857Z,6.93
2018-10-04T23:51:33.309Z,4.83
2018-10-04T23:54:02.245Z,4.97
2018-10-04T23:56:31.107Z,3.90
2018-10-04T23:59:00.673Z,3.87
